Overview Statistics Trail Chart Weather Telemetry Raw packets
 

This is the latest recevied weather packets stored in our database for station/object W8KHW. If no packets are shown the sender has not sent any weather packets the latest 10 day(s).

<< 13 14 15 16 17 18 19 >>
Time Temp. Humidity Pressure Rain* Wind** Luminosity Snow
1777727385 5.56° C 75% 1018.2 hPa 0 mm - - -
1777726885 5.56° C 75% 1018.2 hPa 0 mm - - -
1777726384 5° C 76% 1018 hPa 0 mm - - -
1777725884 5° C 75% 1018.2 hPa 0 mm - - -
1777725384 4.44° C 78% 1018.1 hPa 0 mm - - -
1777724884 3.89° C 79% 1017.9 hPa 0 mm - - -
1777724384 2.78° C 84% 1018 hPa 0 mm - - -
1777723883 2.22° C 92% 1017.9 hPa 0 mm - - -
1777723383 1.67° C 98% 1017.8 hPa 0 mm - - -
1777722883 1.67° C 99% 1017.7 hPa 0 mm - - -
1777722383 1.67° C 99% 1017.8 hPa 0 mm - - -
1777721882 1.11° C 99% 1017.7 hPa 0 mm - - -
1777721382 0.56° C 99% 1017.7 hPa 0 mm - - -
1777720882 0° C 99% 1017.8 hPa 0 mm - - -
1777720382 0° C 99% 1017.7 hPa 0 mm - - -
1777719882 -0.56° C 99% 1017.6 hPa 0 mm - - -
1777719382 0° C 99% 1017.4 hPa 0 mm - - -
1777718881 -0.56° C 99% 1017.6 hPa 0 mm - - -
1777718381 -0.56° C 99% 1017.5 hPa 0 mm - - -
1777717881 -0.56° C 99% 1017.7 hPa 0 mm - - -
1777717381 -0.56° C 99% 1017.6 hPa 0 mm - - -
1777716881 -0.56° C 99% 1017.6 hPa 0 mm - - -
1777716380 -0.56° C 99% 1017.4 hPa 0 mm - - -
1777715880 0° C 99% 1017.4 hPa 0 mm - - -
1777715380 0° C 99% 1017.5 hPa 0 mm - - -

* Rain latest hour (hover to see other rain measurements)
** Current wind speed in m/s (hover to see current wind gust speed)